Snoqualmie River: Middle Fork station

back to: Snoqualmie river
Middle Fork station Summary - (NOAA Hydrograph: TANW1)
Latest reading:
Tue10/20 11:16 pm 4.54 ft 1935 cfs (steady)
Past 24hr max:
Tue10/20 12:15 am 5.96 ft 3514 cfs
Forecasted crests: (published Tue 10/20/20 02:15 pm)
Wed10/21 05:00 pm 4.68 ft 2061 cfs
Fri10/23 11:00 pm 3.91 ft 1418 cfs
Tue10/27 11:00 pm 2.01 ft 412 cfs

Middle Fork station Details

Latest Readings

Last 100 Readings:
Tue10/20 11:16 pm 4.54 ft 1935 cfs
Tue10/20 11:15 pm 4.54 ft 1935 cfs
Tue10/20 11:00 pm 4.56 ft 1954 cfs
Tue10/20 10:45 pm 4.56 ft 1954 cfs
Tue10/20 10:30 pm 4.6 ft 1990 cfs
Tue10/20 10:16 pm 4.62 ft 2009 cfs
Tue10/20 10:15 pm 4.62 ft 2009 cfs
Tue10/20 10:00 pm 4.63 ft 2018 cfs
Tue10/20 09:45 pm 4.61 ft 1999 cfs
Tue10/20 09:30 pm 4.63 ft 2018 cfs
Tue10/20 09:16 pm 4.66 ft 2046 cfs
Tue10/20 09:15 pm 4.66 ft 2046 cfs
Tue10/20 09:00 pm 4.67 ft 2055 cfs
Tue10/20 08:45 pm 4.66 ft 2046 cfs
Tue10/20 08:30 pm 4.68 ft 2065 cfs
Tue10/20 08:16 pm 4.71 ft 2093 cfs
Tue10/20 08:15 pm 4.71 ft 2093 cfs
Tue10/20 08:00 pm 4.69 ft 2074 cfs
Tue10/20 07:45 pm 4.74 ft 2122 cfs
Tue10/20 07:30 pm 4.7 ft 2084 cfs
Tue10/20 07:15 pm 4.71 ft 2093 cfs
Tue10/20 07:00 pm 4.76 ft 2141 cfs
Tue10/20 06:45 pm 4.77 ft 2151 cfs
Tue10/20 06:30 pm 4.8 ft 2180 cfs
Tue10/20 06:15 pm 4.78 ft 2160 cfs
Tue10/20 06:00 pm 4.8 ft 2180 cfs
Tue10/20 05:45 pm 4.78 ft 2160 cfs
Tue10/20 05:30 pm 4.85 ft 2229 cfs
Tue10/20 05:15 pm 4.84 ft 2219 cfs
Tue10/20 05:00 pm 4.87 ft 2249 cfs
Tue10/20 04:45 pm 4.84 ft 2219 cfs
Tue10/20 04:30 pm 4.9 ft 2279 cfs
Tue10/20 04:15 pm 4.89 ft 2269 cfs
Tue10/20 04:01 pm 4.92 ft 2299 cfs
Tue10/20 04:00 pm 4.92 ft 2299 cfs
Tue10/20 03:45 pm 4.93 ft 2309 cfs
Tue10/20 03:30 pm 4.95 ft 2329 cfs
Tue10/20 03:15 pm 4.97 ft 2350 cfs
Tue10/20 03:01 pm 4.99 ft 2370 cfs
Tue10/20 03:00 pm 4.99 ft 2370 cfs
Tue10/20 02:45 pm 4.96 ft 2340 cfs
Tue10/20 02:30 pm 5.0 ft 2381 cfs
Tue10/20 02:15 pm 5.0 ft 2381 cfs
Tue10/20 02:00 pm 5.0 ft 2381 cfs
Tue10/20 01:45 pm 5.03 ft 2412 cfs
Tue10/20 01:30 pm 5.05 ft 2433 cfs
Tue10/20 01:15 pm 5.09 ft 2475 cfs
Tue10/20 01:02 pm 5.1 ft 2486 cfs
Tue10/20 01:00 pm 5.1 ft 2486 cfs
Tue10/20 12:45 pm 5.11 ft 2496 cfs
Tue10/20 12:30 pm 5.14 ft 2528 cfs
Tue10/20 12:15 pm 5.16 ft 2550 cfs
Tue10/20 12:02 pm 5.14 ft 2528 cfs
Tue10/20 12:00 pm 5.14 ft 2528 cfs
Tue10/20 11:45 am 5.13 ft 2518 cfs
Tue10/20 11:30 am 5.17 ft 2561 cfs
Tue10/20 11:15 am 5.17 ft 2561 cfs
Tue10/20 11:01 am 5.23 ft 2626 cfs
Tue10/20 11:00 am 5.23 ft 2626 cfs
Tue10/20 10:45 am 5.19 ft 2582 cfs
Tue10/20 10:30 am 5.23 ft 2626 cfs
Tue10/20 10:15 am 5.24 ft 2637 cfs
Tue10/20 10:01 am 5.3 ft 2704 cfs
Tue10/20 10:00 am 5.3 ft 2704 cfs
Tue10/20 09:45 am 5.29 ft 2693 cfs
Tue10/20 09:30 am 5.29 ft 2693 cfs
Tue10/20 09:15 am 5.34 ft 2749 cfs
Tue10/20 09:01 am 5.38 ft 2795 cfs
Tue10/20 09:00 am 5.38 ft 2795 cfs
Tue10/20 08:45 am 5.32 ft 2727 cfs
Tue10/20 08:30 am 5.37 ft 2784 cfs
Tue10/20 08:15 am 5.39 ft 2807 cfs
Tue10/20 08:01 am 5.45 ft 2876 cfs
Tue10/20 08:00 am 5.45 ft 2876 cfs
Tue10/20 07:45 am 5.44 ft 2864 cfs
Tue10/20 07:30 am 5.44 ft 2864 cfs
Tue10/20 07:15 am 5.44 ft 2864 cfs
Tue10/20 07:02 am 5.47 ft 2900 cfs
Tue10/20 07:00 am 5.47 ft 2900 cfs
Tue10/20 06:45 am 5.52 ft 2959 cfs
Tue10/20 06:30 am 5.52 ft 2959 cfs
Tue10/20 06:15 am 5.56 ft 3007 cfs
Tue10/20 06:00 am 5.55 ft 2995 cfs
Tue10/20 05:46 am 5.53 ft 2971 cfs
Tue10/20 05:45 am 5.53 ft 2971 cfs
Tue10/20 05:30 am 5.57 ft 3019 cfs
Tue10/20 05:15 am 5.59 ft 3043 cfs
Tue10/20 05:00 am 5.62 ft 3079 cfs
Tue10/20 04:47 am 5.69 ft 3166 cfs
Tue10/20 04:45 am 5.69 ft 3166 cfs
Tue10/20 04:30 am 5.68 ft 3153 cfs
Tue10/20 04:15 am 5.72 ft 3203 cfs
Tue10/20 04:00 am 5.73 ft 3216 cfs
Tue10/20 03:46 am 5.72 ft 3203 cfs
Tue10/20 03:45 am 5.72 ft 3203 cfs
Tue10/20 03:30 am 5.73 ft 3216 cfs
Tue10/20 03:15 am 5.73 ft 3216 cfs
Tue10/20 03:00 am 5.84 ft 3356 cfs
Tue10/20 02:47 am 5.86 ft 3382 cfs
Tue10/20 02:45 am 5.86 ft 3382 cfs

Latest Forecasts

Currently Forecasted Readings:
Tue10/20 05:00 pm 4.73 ft 2108 cfs
Tue10/20 11:00 pm 4.54 ft 1935 cfs
Wed10/21 05:00 am 4.63 ft 2020 cfs
Wed10/21 11:00 am 4.66 ft 2045 cfs
Wed10/21 05:00 pm 4.68 ft 2061 cfs
Wed10/21 11:00 pm 4.41 ft 1824 cfs
Thu10/22 05:00 am 3.99 ft 1480 cfs
Thu10/22 11:00 am 3.7 ft 1267 cfs
Thu10/22 05:00 pm 3.46 ft 1111 cfs
Thu10/22 11:00 pm 3.26 ft 988 cfs
Fri10/23 05:00 am 3.08 ft 888 cfs
Fri10/23 11:00 am 3.1 ft 896 cfs
Fri10/23 05:00 pm 3.69 ft 1266 cfs
Fri10/23 11:00 pm 3.91 ft 1418 cfs
Sat10/24 05:00 am 3.64 ft 1227 cfs
Sat10/24 11:00 am 3.29 ft 1005 cfs
Sat10/24 05:00 pm 3.0 ft 841 cfs
Sat10/24 11:00 pm 2.8 ft 740 cfs
Sun10/25 05:00 am 2.65 ft 665 cfs
Sun10/25 11:00 am 2.52 ft 608 cfs
Sun10/25 05:00 pm 2.41 ft 562 cfs
Sun10/25 11:00 pm 2.31 ft 524 cfs
Mon10/26 05:00 am 2.23 ft 490 cfs
Mon10/26 11:00 am 2.15 ft 461 cfs
Mon10/26 05:00 pm 2.09 ft 441 cfs
Mon10/26 11:00 pm 2.02 ft 415 cfs
Tue10/27 05:00 am 1.97 ft 398 cfs
Tue10/27 11:00 am 1.95 ft 393 cfs
Tue10/27 05:00 pm 1.99 ft 406 cfs
Tue10/27 11:00 pm 2.01 ft 412 cfs
Wed10/28 05:00 am 1.95 ft 392 cfs
Wed10/28 11:00 am 1.84 ft 359 cfs
Wed10/28 05:00 pm 1.78 ft 339 cfs
Wed10/28 11:00 pm 1.86 ft 364 cfs
Thu10/29 05:00 am 1.99 ft 405 cfs
Thu10/29 11:00 am 2.52 ft 609 cfs
Thu10/29 05:00 pm 3.62 ft 1213 cfs
Thu10/29 11:00 pm 4.5 ft 1895 cfs
Fri10/30 05:00 am 4.98 ft 2356 cfs

Snoqualmie River flood gauge data supplied by the
National Weather Service Northwest River Forecast Center.

Sign up for Floodzilla alerts.